Airfield :
LOGIN :

Register | Disclaimer

   EN    FR    IT 

 










Legend :    VFR   Marginal VFR   IFR   Intensive IFR   Very Intensive IFR
Visi :
Ceiling :
>= 8 km
>= 3000ft
5 to 8 km
1000 to 3000 ft
1500m to 5 km
500 to 1000 ft
800 to 1500m
200 to 500 ft
< 800m
< 200 ft
Symbols :   Thunderstorms  Fog  Heavy snow  Heavy precipitations  Wind > 20 kt
SIGMETs :     Misc.  Thunderstorms  Icing  Turbulence  Mountain Waves  Volcanic Ashes







- Airport Elevation : 465 ft
- IATA code : LEJ


EDDP - Leipzig Halle

CURRENT METAR :
  • 120820Z 34008KT 9999 FEW005 BKN010 BKN030 02/01 Q1023 TEMPO BKN008

EXPIRED METARs :
  • 120750Z 34007KT 9999 FEW005 SCT023 02/01 Q1022 TEMPO BKN010
  • 120720Z 35007KT 9999 BKN005 OVC023 02/02 Q1022 TEMPO BKN004
  • 120650Z 35010KT 9999 OVC004 02/02 Q1022 NOSIG
  • 120620Z 34010KT 6000 OVC004 02/01 Q1022 NOSIG
  • 120550Z 33010KT 9999 OVC004 02/01 Q1022 NOSIG
  • 120520Z 32010KT 9999 -DZ OVC005 02/01 Q1021 TEMPO BKN004

TAF COR TAF EDDP
Valid from the 12 at 06:00 until the 13 at 06:00 UTC


120518Z 1206/1306 33008KT 9999 BKN010
TEMPO 1206/1210 BKN004
TEMPO 1212/1218 BKN015
BECMG 1212/1215 04006KT
TEMPO 1221/1306 BKN005
No reported NOTAMs for that airfield.



MET'MAP, your aeronautical weather chart ! - Copyright ORBIFLY December 2007 - Disclaimer

ORBIFLY MET'MAP TEAM :

Programming & Development : Alexandra Zaïnal
Concept & Development : Baudouin d'Aumeries
Co-Development & Prog : Marc-Olivier Méhu
Technical & hardware support : Manuel Goepfert

Contact : metmap@orbifly.com




SOURCES & CREDITS :

   NOAA